ADDS TAF Data INFO
IDs: Format: Raw Decoded Include METARs

Data at: 1905 UTC 16 Jan 2018

KCMH 161851Z 24007KT 10SM SCT100 SCT200 M12/M17 A3044 RMK AO2 SLP322 T11221167

KCMH 161740Z 1618/1718 27010KT P6SM BKN100
  FM162000 26010KT P6SM SCT025
  TEMPO 1620/1624 BKN025
  FM170000 27006KT P6SM OVC025
  FM170300 27005KT P6SM OVC015
  FM171600 27008KT P6SM BKN025